Terminal Aerodrome Forecast
Issued by NWS North Platte, NE

Home | Current Version | Previous Version | Text Only | Print | Product List | Glossary Off
Versions: 1 2 3 4 5 6 7 8 9 10 11 12 13

000
FTUS43 KLBF 181100 CCA
TAFVTN
TAF COR
KVTN 181129Z 1812/1912 33008KT P6SM VCTS BKN100CB
     FM181300 33008KT P6SM SCT200
     FM181600 33012KT P6SM SCT200
     FM190000 35007KT P6SM SKC=

USA.gov is the U.S. government's official web portal to all federal, state and local government web resources and services.